Time;durP1;ratioP1;P1;durP2;ratioP2;P2;SDS_P1;SDS_P2;PMS_P1;PMS_P2;Temp;Humidity;BMP_temperature;BMP_pressure;BME280_temperature;BME280_humidity;BME280_pressure;Samples;Min_cycle;Max_cycle;Signal;HPM_P1;HPM_P2
2021/03/29 00:00:10;;;;;;;5.70;2.40;;;8.40;99.90;;;;;;492566;241;28078;-73
2021/03/29 00:02:11;;;;;;;8.57;2.53;;;8.40;99.90;;;;;;492579;241;27855;-74
2021/03/29 00:04:12;;;;;;;4.87;2.50;;;8.40;99.90;;;;;;492533;241;28001;-73
2021/03/29 00:06:14;;;;;;;5.63;2.90;;;8.40;99.90;;;;;;492480;241;28066;-74
2021/03/29 00:08:15;;;;;;;7.00;2.90;;;8.30;99.90;;;;;;492444;241;28081;-74
2021/03/29 00:10:16;;;;;;;6.93;2.70;;;8.30;99.90;;;;;;492469;241;28113;-73
2021/03/29 00:12:17;;;;;;;5.10;2.57;;;8.30;99.90;;;;;;492541;241;27669;-73
2021/03/29 00:14:19;;;;;;;7.07;2.83;;;8.30;99.90;;;;;;492536;241;28089;-73
2021/03/29 00:16:20;;;;;;;5.07;2.50;;;8.30;99.90;;;;;;492582;241;27942;-74
2021/03/29 00:18:21;;;;;;;6.07;2.70;;;8.30;99.90;;;;;;492555;241;27638;-73
2021/03/29 00:20:22;;;;;;;3.77;2.10;;;8.30;99.90;;;;;;492586;241;27582;-73
2021/03/29 00:22:24;;;;;;;14.87;2.90;;;8.30;99.90;;;;;;492557;241;27692;-73
2021/03/29 00:24:25;;;;;;;7.90;3.27;;;8.30;99.90;;;;;;492558;241;27936;-74
2021/03/29 00:26:26;;;;;;;9.03;2.57;;;8.40;99.90;;;;;;492592;241;27988;-74
2021/03/29 00:28:27;;;;;;;9.13;2.70;;;8.30;99.90;;;;;;492721;241;28534;-74
2021/03/29 00:30:29;;;;;;;8.20;3.10;;;8.30;99.90;;;;;;492741;241;28444;-73
2021/03/29 00:32:30;;;;;;;4.37;2.50;;;8.30;99.90;;;;;;492208;241;28589;-74
2021/03/29 00:34:31;;;;;;;7.80;3.43;;;8.30;99.90;;;;;;492615;241;27929;-73
2021/03/29 00:36:32;;;;;;;4.00;2.20;;;8.30;99.90;;;;;;492633;241;27989;-73
2021/03/29 00:38:34;;;;;;;5.30;2.60;;;8.30;99.90;;;;;;492541;241;27854;-73
2021/03/29 00:40:35;;;;;;;8.23;2.83;;;8.30;99.90;;;;;;492571;241;27587;-74
2021/03/29 00:42:36;;;;;;;4.10;2.43;;;8.30;99.90;;;;;;492558;241;27978;-73
2021/03/29 00:44:37;;;;;;;6.73;2.70;;;8.30;99.90;;;;;;492449;238;27849;-74
2021/03/29 00:46:39;;;;;;;7.50;2.70;;;8.40;99.90;;;;;;492530;241;27750;-74
2021/03/29 00:48:40;;;;;;;5.10;2.50;;;8.40;99.90;;;;;;492556;241;28255;-74
2021/03/29 00:50:41;;;;;;;8.67;2.60;;;8.40;99.90;;;;;;492562;240;28005;-74
2021/03/29 00:52:42;;;;;;;7.70;3.13;;;8.40;99.90;;;;;;492524;241;28093;-74
2021/03/29 00:54:44;;;;;;;7.37;2.80;;;8.40;99.90;;;;;;492522;240;27960;-73
2021/03/29 00:56:45;;;;;;;6.10;2.30;;;8.40;99.90;;;;;;492512;241;27831;-73
2021/03/29 00:58:46;;;;;;;6.40;2.47;;;8.40;99.90;;;;;;492535;241;27983;-73
2021/03/29 01:00:47;;;;;;;7.97;3.10;;;8.30;99.90;;;;;;492557;241;28042;-74
2021/03/29 01:02:49;;;;;;;4.37;2.77;;;8.20;99.90;;;;;;492528;241;28990;-74
2021/03/29 01:04:50;;;;;;;5.43;3.20;;;8.20;99.90;;;;;;492513;241;28601;-74
2021/03/29 01:06:51;;;;;;;12.10;3.77;;;8.10;99.90;;;;;;492515;241;28547;-73
2021/03/29 01:08:52;;;;;;;6.47;2.63;;;8.20;99.90;;;;;;492059;241;28411;-74
2021/03/29 01:10:54;;;;;;;5.23;2.60;;;8.20;99.90;;;;;;492576;241;29296;-73
2021/03/29 01:12:55;;;;;;;3.57;2.60;;;8.10;99.90;;;;;;492542;241;28183;-74
2021/03/29 01:14:56;;;;;;;7.13;2.63;;;8.10;99.90;;;;;;492551;241;27816;-74
2021/03/29 01:16:57;;;;;;;8.33;2.50;;;8.20;99.90;;;;;;492556;241;27965;-73
2021/03/29 01:18:59;;;;;;;7.50;3.23;;;8.20;99.90;;;;;;492590;241;27991;-73
2021/03/29 01:21:00;;;;;;;6.57;2.70;;;8.20;99.90;;;;;;492555;241;27951;-73
2021/03/29 01:23:01;;;;;;;6.67;2.80;;;8.20;99.90;;;;;;492518;241;27992;-73
2021/03/29 01:25:02;;;;;;;6.53;2.67;;;8.20;99.90;;;;;;492545;241;27594;-73
2021/03/29 01:27:04;;;;;;;6.80;3.10;;;8.20;99.90;;;;;;492518;241;27628;-73
2021/03/29 01:29:05;;;;;;;6.20;2.40;;;8.20;99.90;;;;;;492519;241;28087;-73
2021/03/29 01:31:06;;;;;;;8.37;2.70;;;8.20;99.90;;;;;;492597;241;28038;-74
2021/03/29 01:33:07;;;;;;;9.20;3.10;;;8.20;99.90;;;;;;492511;241;28010;-73
2021/03/29 01:35:09;;;;;;;5.23;2.47;;;8.20;99.90;;;;;;492432;241;28011;-74
2021/03/29 01:37:10;;;;;;;11.30;3.00;;;8.20;99.90;;;;;;492531;241;28079;-73
2021/03/29 01:39:11;;;;;;;9.40;3.03;;;8.20;99.90;;;;;;492543;241;28324;-73
2021/03/29 01:41:12;;;;;;;8.30;2.90;;;8.20;99.90;;;;;;492555;241;28521;-73
2021/03/29 01:43:14;;;;;;;6.00;2.80;;;8.20;99.90;;;;;;492538;241;28959;-74
2021/03/29 01:45:15;;;;;;;15.30;2.73;;;8.20;99.90;;;;;;492534;241;28473;-74
2021/03/29 01:47:16;;;;;;;5.23;2.70;;;8.20;99.90;;;;;;492540;241;28550;-74
2021/03/29 01:49:17;;;;;;;6.57;2.73;;;8.20;99.90;;;;;;492530;241;28046;-74
2021/03/29 01:51:19;;;;;;;5.67;2.90;;;8.20;99.90;;;;;;492360;241;28395;-73
2021/03/29 01:53:20;;;;;;;8.87;2.97;;;8.10;99.90;;;;;;492296;241;28072;-73
2021/03/29 01:55:21;;;;;;;10.20;3.10;;;8.10;99.90;;;;;;492467;239;27929;-74
2021/03/29 01:57:22;;;;;;;6.20;3.07;;;8.00;99.90;;;;;;492600;241;28068;-74
2021/03/29 01:59:24;;;;;;;6.70;2.87;;;8.00;99.90;;;;;;487504;244;28041;-73
2021/03/29 02:01:25;;;;;;;5.43;3.03;;;7.90;99.90;;;;;;487492;244;28022;-73
2021/03/29 02:03:26;;;;;;;6.80;2.83;;;7.90;99.90;;;;;;487490;244;28015;-73
2021/03/29 02:05:27;;;;;;;8.60;3.20;;;7.80;99.90;;;;;;487547;244;27817;-73
2021/03/29 02:07:29;;;;;;;3.63;2.40;;;7.70;99.90;;;;;;487483;244;28017;-73
2021/03/29 02:09:30;;;;;;;6.83;2.83;;;7.60;99.90;;;;;;487120;244;28074;-73
2021/03/29 02:11:31;;;;;;;5.27;3.07;;;7.50;99.90;;;;;;486943;244;28088;-74
2021/03/29 02:13:32;;;;;;;5.23;3.10;;;7.40;99.90;;;;;;487483;244;27840;-74
2021/03/29 02:15:34;;;;;;;5.90;3.37;;;7.40;99.90;;;;;;487495;244;28283;-74
2021/03/29 02:17:35;;;;;;;8.53;2.97;;;7.40;99.90;;;;;;487469;244;28549;-74
2021/03/29 02:19:36;;;;;;;5.90;2.70;;;7.40;99.90;;;;;;487450;244;28401;-73
2021/03/29 02:21:37;;;;;;;8.40;3.00;;;7.40;99.90;;;;;;487442;244;28539;-73
2021/03/29 02:23:39;;;;;;;6.83;2.77;;;7.40;99.90;;;;;;487409;244;28605;-74
2021/03/29 02:25:40;;;;;;;7.30;2.60;;;7.40;99.90;;;;;;487404;244;27767;-71
2021/03/29 02:27:42;;;;;;;7.00;2.53;;;7.40;99.90;;;;;;487331;244;28070;-74
2021/03/29 02:29:42;;;;;;;9.90;2.53;;;7.40;99.90;;;;;;487415;244;27963;-73
2021/03/29 02:31:44;;;;;;;7.83;2.80;;;7.40;99.90;;;;;;487284;244;28080;-72
2021/03/29 02:33:45;;;;;;;8.43;3.10;;;7.40;99.90;;;;;;487175;244;27983;-71
2021/03/29 02:35:46;;;;;;;4.90;2.70;;;7.30;99.90;;;;;;487230;244;28069;-71
2021/03/29 02:37:47;;;;;;;6.18;2.70;;;7.40;99.90;;;;;;487313;244;27982;-71
2021/03/29 02:39:49;;;;;;;4.37;2.90;;;7.30;99.90;;;;;;487342;244;27599;-71
2021/03/29 02:41:50;;;;;;;8.10;3.50;;;7.40;99.90;;;;;;487321;244;28002;-71
2021/03/29 02:43:51;;;;;;;4.37;2.70;;;7.40;99.90;;;;;;487703;244;27473;-71
2021/03/29 02:45:52;;;;;;;7.43;3.40;;;7.40;99.90;;;;;;487697;244;27927;-71
2021/03/29 02:47:54;;;;;;;5.43;3.03;;;7.40;99.90;;;;;;487510;244;27884;-72
2021/03/29 02:49:55;;;;;;;5.57;2.80;;;7.40;99.90;;;;;;487355;244;28361;-72
2021/03/29 02:51:56;;;;;;;6.67;2.93;;;7.40;99.90;;;;;;487332;244;28064;-72
2021/03/29 02:53:57;;;;;;;7.70;3.80;;;7.40;99.90;;;;;;487312;244;28469;-72
2021/03/29 02:55:58;;;;;;;7.83;3.50;;;7.50;99.90;;;;;;487330;244;28459;-74
2021/03/29 02:58:00;;;;;;;7.23;3.50;;;7.50;99.90;;;;;;487327;244;28034;-71
2021/03/29 03:00:01;;;;;;;7.43;2.63;;;7.50;99.90;;;;;;487369;244;27630;-71
2021/03/29 03:02:02;;;;;;;5.10;2.80;;;7.50;99.90;;;;;;487383;244;27744;-71
2021/03/29 03:04:03;;;;;;;8.43;2.90;;;7.50;99.90;;;;;;487384;244;27946;-71
2021/03/29 03:06:05;;;;;;;9.23;2.77;;;7.40;99.90;;;;;;486972;244;28065;-73
2021/03/29 03:08:07;;;;;;;7.00;2.97;;;7.40;99.90;;;;;;487354;244;27917;-73
2021/03/29 03:10:07;;;;;;;6.53;2.60;;;7.40;99.90;;;;;;487355;244;27856;-72
2021/03/29 03:12:08;;;;;;;8.97;3.03;;;7.30;99.90;;;;;;487370;244;27713;-74
2021/03/29 03:14:10;;;;;;;5.10;2.70;;;7.40;99.90;;;;;;487335;244;28046;-73
2021/03/29 03:16:11;;;;;;;7.37;2.77;;;7.40;99.90;;;;;;487413;244;28300;-74
2021/03/29 03:18:12;;;;;;;4.43;2.30;;;7.40;99.90;;;;;;487463;244;27600;-74
2021/03/29 03:20:13;;;;;;;10.70;2.57;;;7.40;99.90;;;;;;487513;244;27852;-72
2021/03/29 03:22:15;;;;;;;7.07;2.60;;;7.40;99.90;;;;;;487579;244;27820;-71
2021/03/29 03:24:16;;;;;;;5.47;2.70;;;7.40;99.90;;;;;;487379;244;28392;-72
2021/03/29 03:26:17;;;;;;;9.57;2.80;;;7.40;99.90;;;;;;487331;244;29129;-73
2021/03/29 03:28:18;;;;;;;5.30;2.83;;;7.30;99.90;;;;;;487363;244;28521;-71
2021/03/29 03:30:20;;;;;;;5.00;2.73;;;7.30;99.90;;;;;;487353;244;28539;-72
2021/03/29 03:32:21;;;;;;;9.37;2.93;;;7.30;99.90;;;;;;487316;244;28913;-72
2021/03/29 03:34:22;;;;;;;6.73;2.83;;;7.30;99.90;;;;;;487334;244;27979;-71
2021/03/29 03:36:24;;;;;;;7.80;3.27;;;7.30;99.90;;;;;;487375;244;27978;-74
2021/03/29 03:38:25;;;;;;;5.17;2.60;;;7.30;99.90;;;;;;487359;244;27618;-71
2021/03/29 03:40:26;;;;;;;6.47;3.03;;;7.30;99.90;;;;;;487371;244;28035;-71
2021/03/29 03:42:27;;;;;;;7.20;2.77;;;7.30;99.90;;;;;;487343;244;28046;-72
2021/03/29 03:44:28;;;;;;;7.27;3.20;;;7.40;99.90;;;;;;487356;244;28077;-74
2021/03/29 03:46:30;;;;;;;8.10;3.03;;;7.30;99.90;;;;;;487345;244;28075;-71
2021/03/29 03:48:31;;;;;;;7.03;2.43;;;7.30;99.90;;;;;;487389;244;28053;-72
2021/03/29 03:50:32;;;;;;;6.97;2.73;;;7.30;99.90;;;;;;487285;244;27871;-71
2021/03/29 03:52:33;;;;;;;5.23;2.83;;;7.20;99.90;;;;;;487335;244;27976;-73
2021/03/29 03:54:35;;;;;;;8.03;2.90;;;7.20;99.90;;;;;;487362;244;27865;-73
2021/03/29 03:56:36;;;;;;;6.03;3.07;;;7.10;99.90;;;;;;486969;244;28069;-71
2021/03/29 03:58:37;;;;;;;7.83;3.10;;;7.10;99.90;;;;;;486875;244;27500;-72
2021/03/29 04:00:38;;;;;;;5.20;2.87;;;7.00;99.90;;;;;;487426;244;28155;-73
2021/03/29 04:02:40;;;;;;;6.07;2.70;;;7.00;99.90;;;;;;487371;244;28431;-73
2021/03/29 04:04:41;;;;;;;5.90;2.87;;;7.00;99.90;;;;;;487321;244;28411;-73
2021/03/29 04:06:42;;;;;;;6.50;2.60;;;7.00;99.90;;;;;;487346;244;28455;-74
2021/03/29 04:08:45;;;;;;;6.33;3.27;;;7.00;99.90;;;;;;487383;244;28563;-71
2021/03/29 04:10:55;;;;;;;4.13;2.80;;;7.00;99.90;;;;;;487290;244;28197;-70
2021/03/29 04:12:56;;;;;;;6.00;3.10;;;7.00;99.90;;;;;;487252;243;28581;-74
2021/03/29 04:14:56;;;;;;;8.17;3.30;;;7.00;99.90;;;;;;487254;243;28450;-73
2021/03/29 04:16:57;;;;;;;9.70;3.60;;;7.00;99.90;;;;;;487434;244;28629;-73
2021/03/29 04:18:59;;;;;;;5.70;3.20;;;7.00;99.90;;;;;;487533;244;28172;-71
2021/03/29 04:21:00;;;;;;;5.70;3.00;;;7.00;99.90;;;;;;487542;244;28230;-71
2021/03/29 04:23:01;;;;;;;8.10;3.13;;;7.00;99.90;;;;;;487553;244;28514;-71
2021/03/29 04:25:02;;;;;;;6.67;3.30;;;7.00;99.90;;;;;;487204;244;27870;-71
2021/03/29 04:27:04;;;;;;;8.23;3.27;;;7.00;99.90;;;;;;487169;244;28028;-71
2021/03/29 04:29:05;;;;;;;4.83;2.60;;;7.00;99.90;;;;;;487516;244;28032;-71
2021/03/29 04:31:06;;;;;;;6.60;2.87;;;6.90;99.90;;;;;;487483;244;27616;-71
2021/03/29 04:33:07;;;;;;;6.60;3.20;;;6.90;99.90;;;;;;487456;244;27925;-71
2021/03/29 04:35:09;;;;;;;7.27;2.80;;;6.90;99.90;;;;;;487359;244;28061;-71
2021/03/29 04:37:10;;;;;;;11.38;2.80;;;6.90;99.90;;;;;;487392;244;28197;-73
2021/03/29 04:39:11;;;;;;;6.77;3.43;;;6.80;99.90;;;;;;487409;244;27591;-73
2021/03/29 04:41:12;;;;;;;7.53;3.20;;;6.80;99.90;;;;;;487391;244;27984;-73
2021/03/29 04:43:14;;;;;;;6.37;2.90;;;6.60;99.90;;;;;;487369;244;27964;-73
2021/03/29 04:45:15;;;;;;;5.37;3.00;;;6.60;99.90;;;;;;487335;244;28008;-73
2021/03/29 04:47:16;;;;;;;10.33;3.47;;;6.50;99.90;;;;;;487365;244;28649;-71
2021/03/29 04:49:17;;;;;;;6.50;3.40;;;6.50;99.90;;;;;;487378;244;29351;-71
2021/03/29 04:51:19;;;;;;;7.83;3.30;;;6.50;99.90;;;;;;487377;244;27508;-71
2021/03/29 04:53:20;;;;;;;5.22;3.10;;;6.50;99.90;;;;;;487348;244;28364;-73
2021/03/29 04:55:21;;;;;;;5.28;3.42;;;6.50;99.90;;;;;;487336;244;27588;-73
2021/03/29 04:57:22;;;;;;;5.83;2.80;;;6.50;99.90;;;;;;487298;244;27520;-73
2021/03/29 04:59:24;;;;;;;6.20;3.05;;;6.50;99.90;;;;;;487396;244;28804;-74
2021/03/29 05:01:25;;;;;;;4.30;2.50;;;6.50;99.90;;;;;;487360;244;27577;-73
2021/03/29 05:03:26;;;;;;;6.70;2.63;;;6.60;99.90;;;;;;487351;244;27990;-73
2021/03/29 05:05:27;;;;;;;5.30;2.90;;;6.60;99.90;;;;;;487354;244;28425;-73
2021/03/29 05:07:29;;;;;;;4.53;3.10;;;6.60;99.90;;;;;;487362;244;29035;-73
2021/03/29 05:09:30;;;;;;;4.22;3.00;;;6.60;99.90;;;;;;487350;244;29463;-74
2021/03/29 05:11:45;;;;;;;3.67;2.28;;;6.50;99.90;;;;;;487360;244;27514;-70
2021/03/29 05:13:32;;;;;;;5.30;3.23;;;6.50;99.90;;;;;;486853;243;27542;-73
2021/03/29 05:15:34;;;;;;;6.62;2.60;;;6.60;99.90;;;;;;487664;244;27852;-73
2021/03/29 05:17:35;;;;;;;7.05;3.10;;;6.60;99.90;;;;;;487403;244;27566;-73
2021/03/29 05:19:36;;;;;;;4.47;2.78;;;6.60;99.90;;;;;;487392;244;27591;-73
2021/03/29 05:21:38;;;;;;;10.47;3.73;;;6.70;99.90;;;;;;487452;244;27517;-73
2021/03/29 05:23:39;;;;;;;4.00;3.17;;;6.70;99.90;;;;;;487473;244;28868;-73
2021/03/29 05:25:40;;;;;;;5.40;2.60;;;6.70;99.90;;;;;;487474;244;29392;-73
2021/03/29 05:27:41;;;;;;;12.00;3.00;;;6.60;99.90;;;;;;487406;244;27948;-73
2021/03/29 05:29:43;;;;;;;7.57;3.20;;;6.60;99.90;;;;;;487363;244;27504;-73
2021/03/29 05:31:44;;;;;;;3.75;2.65;;;6.60;99.90;;;;;;487346;244;28873;-73
2021/03/29 05:33:45;;;;;;;7.87;2.90;;;6.60;99.90;;;;;;487320;244;27599;-73
2021/03/29 05:35:46;;;;;;;6.03;2.70;;;6.70;99.90;;;;;;487354;244;28482;-73
2021/03/29 05:37:48;;;;;;;8.00;2.73;;;6.70;99.90;;;;;;487395;244;28903;-73
2021/03/29 05:39:49;;;;;;;8.00;3.20;;;6.70;99.90;;;;;;487383;244;27849;-73
2021/03/29 05:41:50;;;;;;;7.23;2.57;;;6.70;99.90;;;;;;487361;244;28074;-73
2021/03/29 05:43:51;;;;;;;6.70;2.73;;;6.70;99.90;;;;;;487358;244;27853;-73
2021/03/29 05:45:53;;;;;;;5.82;2.95;;;6.80;99.90;;;;;;487394;244;28752;-73
2021/03/29 05:47:54;;;;;;;9.70;3.23;;;6.80;99.90;;;;;;487397;244;27895;-73
2021/03/29 05:49:55;;;;;;;4.60;2.70;;;6.80;99.90;;;;;;487354;244;28999;-72
2021/03/29 05:51:56;;;;;;;3.80;2.50;;;6.90;99.90;;;;;;487425;244;28755;-74
2021/03/29 05:53:58;;;;;;;4.90;2.70;;;6.90;99.90;;;;;;487451;244;28945;-73
2021/03/29 05:55:59;;;;;;;5.60;2.87;;;7.00;99.90;;;;;;487532;244;28878;-73
2021/03/29 06:00:01;;;;;;;6.40;2.70;;;7.00;99.90;;;;;;487546;244;27547;-73
2021/03/29 06:02:03;;;;;;;6.23;2.83;;;7.10;99.90;;;;;;487503;244;27857;-73
2021/03/29 06:04:04;;;;;;;5.47;2.83;;;7.10;99.90;;;;;;487473;244;28547;-73
2021/03/29 06:06:05;;;;;;;5.50;2.70;;;7.20;99.90;;;;;;486743;242;28960;-73
2021/03/29 06:08:06;;;;;;;6.00;2.70;;;7.20;99.90;;;;;;487025;244;28722;-73
2021/03/29 06:10:08;;;;;;;6.30;2.70;;;7.20;99.90;;;;;;487444;244;28468;-73
2021/03/29 06:12:09;;;;;;;7.63;3.20;;;7.30;99.90;;;;;;487425;244;28438;-73
2021/03/29 06:14:10;;;;;;;6.10;2.80;;;7.30;99.90;;;;;;487290;244;28538;-73
2021/03/29 06:16:11;;;;;;;4.87;2.50;;;7.40;99.90;;;;;;487356;244;28518;-73
2021/03/29 06:18:13;;;;;;;8.80;2.70;;;7.50;99.90;;;;;;487297;244;29151;-73
2021/03/29 06:20:14;;;;;;;5.10;3.03;;;7.50;99.90;;;;;;487333;244;27876;-73
2021/03/29 06:22:15;;;;;;;8.20;3.10;;;7.60;99.90;;;;;;487333;244;28060;-73
2021/03/29 06:24:16;;;;;;;5.70;2.73;;;7.60;99.90;;;;;;487344;244;28048;-73
2021/03/29 06:26:18;;;;;;;6.47;4.27;;;7.70;99.90;;;;;;487374;244;28002;-73
2021/03/29 06:28:19;;;;;;;9.90;3.00;;;7.70;99.90;;;;;;487335;244;27991;-73
2021/03/29 06:30:20;;;;;;;5.10;3.03;;;7.70;99.90;;;;;;487326;244;28117;-73
2021/03/29 06:32:21;;;;;;;7.03;2.80;;;7.80;99.90;;;;;;487319;244;27880;-73
2021/03/29 06:34:23;;;;;;;9.43;3.60;;;7.90;99.90;;;;;;487330;244;28058;-73
2021/03/29 06:36:24;;;;;;;9.33;3.00;;;7.90;99.90;;;;;;487341;244;28365;-74
2021/03/29 06:38:25;;;;;;;11.23;3.57;;;7.90;99.90;;;;;;487321;244;27619;-73
2021/03/29 06:40:26;;;;;;;7.97;2.47;;;7.90;99.90;;;;;;487330;244;27998;-73
2021/03/29 06:42:28;;;;;;;7.10;2.70;;;7.90;99.90;;;;;;487339;244;27862;-73
2021/03/29 06:44:30;;;;;;;4.03;2.53;;;7.90;99.90;;;;;;487340;244;27986;-73
2021/03/29 06:46:30;;;;;;;6.70;2.47;;;8.00;99.90;;;;;;487601;244;28499;-73
2021/03/29 06:48:32;;;;;;;6.50;3.00;;;8.00;99.90;;;;;;487665;244;28433;-73
2021/03/29 06:50:33;;;;;;;6.33;2.67;;;8.10;99.90;;;;;;487489;244;28464;-73
2021/03/29 06:52:34;;;;;;;4.37;2.53;;;8.10;99.90;;;;;;487613;244;28032;-73
2021/03/29 06:54:35;;;;;;;7.30;2.47;;;8.20;99.90;;;;;;487416;244;28546;-73
2021/03/29 06:56:36;;;;;;;6.60;2.73;;;8.20;99.90;;;;;;487349;244;28128;-73
2021/03/29 06:58:38;;;;;;;4.30;2.40;;;8.30;99.90;;;;;;487334;244;28097;-73
2021/03/29 07:00:39;;;;;;;7.53;2.57;;;8.40;99.90;;;;;;487337;244;28078;-73
2021/03/29 07:02:40;;;;;;;4.60;2.10;;;8.40;99.90;;;;;;487323;244;28069;-73
2021/03/29 07:04:41;;;;;;;10.23;2.70;;;8.50;99.90;;;;;;487369;244;28072;-73
2021/03/29 07:06:43;;;;;;;5.93;2.83;;;8.50;99.90;;;;;;487381;244;27988;-73
2021/03/29 07:08:44;;;;;;;5.70;3.03;;;8.50;99.90;;;;;;487452;244;27963;-73
2021/03/29 07:10:45;;;;;;;6.30;2.53;;;8.60;99.90;;;;;;487466;242;28559;-73
2021/03/29 07:12:46;;;;;;;8.33;2.60;;;8.60;99.90;;;;;;487481;244;27981;-73
2021/03/29 07:14:48;;;;;;;10.93;2.60;;;8.70;99.90;;;;;;487300;244;28060;-73
2021/03/29 07:16:49;;;;;;;6.40;3.00;;;8.70;99.90;;;;;;487293;244;27970;-73
2021/03/29 07:18:50;;;;;;;11.10;2.60;;;8.70;99.90;;;;;;487392;244;27851;-73
2021/03/29 07:20:51;;;;;;;9.50;3.73;;;8.80;99.90;;;;;;487348;244;28178;-73
2021/03/29 07:22:53;;;;;;;5.57;2.70;;;8.80;99.90;;;;;;487385;244;28370;-73
2021/03/29 07:24:54;;;;;;;7.90;3.13;;;8.80;99.90;;;;;;487413;244;28463;-73
2021/03/29 07:26:55;;;;;;;7.37;3.00;;;8.90;99.90;;;;;;487492;244;28387;-73
2021/03/29 07:28:56;;;;;;;11.97;3.60;;;8.90;99.90;;;;;;487534;244;28573;-73
2021/03/29 07:31:01;;;;;;;9.27;3.80;;;8.90;99.90;;;;;;487531;244;28095;-73
2021/03/29 07:33:02;;;;;;;9.77;2.70;;;9.00;99.90;;;;;;487536;244;28468;-73
2021/03/29 07:35:03;;;;;;;7.40;3.03;;;9.10;99.90;;;;;;487507;244;28384;-72
2021/03/29 07:37:04;;;;;;;5.17;3.10;;;9.20;99.90;;;;;;487441;244;28524;-71
2021/03/29 07:39:05;;;;;;;7.33;2.67;;;9.30;99.90;;;;;;487359;244;28477;-74
2021/03/29 07:41:07;;;;;;;5.63;3.00;;;9.30;99.90;;;;;;487189;244;27999;-74
2021/03/29 07:43:08;;;;;;;5.63;2.97;;;9.40;99.90;;;;;;487260;244;27926;-74
2021/03/29 07:45:10;;;;;;;3.87;2.27;;;9.50;99.90;;;;;;487445;244;28235;-74
2021/03/29 07:47:10;;;;;;;7.47;2.43;;;9.60;99.90;;;;;;487472;243;27807;-73
2021/03/29 07:49:12;;;;;;;5.67;2.50;;;9.70;99.90;;;;;;487467;244;28030;-74
2021/03/29 07:51:13;;;;;;;5.10;2.57;;;9.70;99.90;;;;;;487495;244;27899;-74
2021/03/29 07:53:19;;;;;;;3.60;2.37;;;9.80;99.90;;;;;;487493;244;27856;-72
2021/03/29 07:55:18;;;;;;;8.67;2.90;;;9.90;99.90;;;;;;487383;243;27615;-71
2021/03/29 07:57:19;;;;;;;4.03;2.63;;;9.90;99.90;;;;;;487452;244;27972;-71
2021/03/29 07:59:21;;;;;;;7.17;2.37;;;10.00;99.90;;;;;;487413;244;28114;-74
2021/03/29 08:01:22;;;;;;;6.10;2.57;;;10.00;99.90;;;;;;487390;244;28033;-74
2021/03/29 08:03:23;;;;;;;7.90;2.53;;;10.00;99.90;;;;;;487328;244;28432;-74
2021/03/29 08:05:24;;;;;;;3.27;2.07;;;10.10;99.90;;;;;;487392;244;28451;-74
2021/03/29 08:07:26;;;;;;;7.70;3.77;;;10.10;99.90;;;;;;487366;244;28424;-73
2021/03/29 08:09:27;;;;;;;6.27;2.50;;;10.10;99.90;;;;;;487374;244;27871;-74
2021/03/29 08:11:28;;;;;;;5.70;2.50;;;10.20;99.90;;;;;;487322;244;27844;-74
2021/03/29 08:13:29;;;;;;;5.50;2.43;;;10.20;99.90;;;;;;487205;244;28015;-74
2021/03/29 08:15:31;;;;;;;6.13;2.73;;;10.30;99.90;;;;;;487294;244;28054;-74
2021/03/29 08:17:32;;;;;;;5.47;2.70;;;10.30;99.90;;;;;;487338;244;28032;-74
2021/03/29 08:19:33;;;;;;;4.37;2.10;;;10.30;99.90;;;;;;487369;244;28055;-74
2021/03/29 08:21:34;;;;;;;5.80;2.47;;;10.30;99.90;;;;;;487338;244;28106;-74
2021/03/29 08:23:36;;;;;;;3.50;2.30;;;10.40;99.90;;;;;;487334;244;28119;-74
2021/03/29 08:25:37;;;;;;;3.90;1.90;;;10.40;99.90;;;;;;487340;244;27946;-74
2021/03/29 08:27:38;;;;;;;5.73;2.37;;;10.50;99.90;;;;;;487355;244;28622;-75
2021/03/29 08:29:43;;;;;;;6.60;2.43;;;10.60;99.90;;;;;;487363;244;28182;-74
2021/03/29 08:31:41;;;;;;;3.27;2.37;;;10.70;99.90;;;;;;487283;243;28208;-74
2021/03/29 08:33:42;;;;;;;5.00;2.57;;;10.70;99.90;;;;;;487551;244;27981;-74
2021/03/29 08:35:44;;;;;;;6.43;2.33;;;10.70;99.90;;;;;;487476;244;27717;-72
2021/03/29 08:37:44;;;;;;;5.23;2.40;;;10.90;99.90;;;;;;487370;244;27999;-74
2021/03/29 08:39:46;;;;;;;5.40;2.30;;;10.90;99.90;;;;;;487353;244;27951;-73
2021/03/29 08:41:47;;;;;;;6.50;2.23;;;10.90;99.90;;;;;;487321;244;28174;-72
2021/03/29 08:43:48;;;;;;;4.30;2.30;;;10.90;99.90;;;;;;487496;244;28433;-74
2021/03/29 08:45:50;;;;;;;4.90;2.43;;;11.10;99.90;;;;;;487455;244;28234;-72
2021/03/29 08:47:51;;;;;;;7.10;2.20;;;11.20;99.90;;;;;;487371;244;28140;-72
2021/03/29 08:49:52;;;;;;;6.43;1.97;;;11.20;99.90;;;;;;487345;244;28141;-72
2021/03/29 08:51:53;;;;;;;13.00;3.03;;;11.30;99.90;;;;;;487325;244;28718;-72
2021/03/29 08:53:54;;;;;;;3.83;2.43;;;11.20;99.90;;;;;;487297;244;28754;-72
2021/03/29 08:55:56;;;;;;;2.63;1.80;;;11.30;99.90;;;;;;487342;244;28745;-72
2021/03/29 08:57:57;;;;;;;6.20;2.80;;;11.40;99.90;;;;;;487223;243;28356;-72
2021/03/29 08:59:58;;;;;;;6.40;2.57;;;11.60;99.90;;;;;;487350;243;28067;-72
2021/03/29 09:01:59;;;;;;;5.30;2.50;;;11.60;99.90;;;;;;487307;244;28329;-72
2021/03/29 09:04:01;;;;;;;6.83;2.30;;;11.70;99.90;;;;;;487187;244;28328;-74
2021/03/29 09:06:02;;;;;;;8.77;2.43;;;11.60;99.90;;;;;;487337;244;28247;-74
2021/03/29 09:08:03;;;;;;;5.40;2.13;;;11.70;99.90;;;;;;487372;244;28109;-75
2021/03/29 09:10:05;;;;;;;3.57;2.10;;;11.70;99.90;;;;;;487370;244;28182;-74
2021/03/29 09:12:06;;;;;;;7.40;2.20;;;11.70;99.90;;;;;;487329;244;28224;-74
2021/03/29 09:14:07;;;;;;;3.83;2.30;;;11.80;99.90;;;;;;487321;244;28200;-74
2021/03/29 09:16:08;;;;;;;5.60;2.33;;;12.00;99.90;;;;;;487339;244;28640;-74
2021/03/29 09:18:09;;;;;;;4.60;2.30;;;12.10;99.90;;;;;;487400;244;28663;-73
2021/03/29 09:20:11;;;;;;;5.60;2.63;;;12.00;99.90;;;;;;487462;244;28666;-74
2021/03/29 09:22:12;;;;;;;6.47;2.27;;;12.00;99.90;;;;;;487455;244;28186;-74
2021/03/29 09:24:13;;;;;;;6.00;2.50;;;12.10;99.90;;;;;;487390;244;28236;-74
2021/03/29 09:26:14;;;;;;;5.20;2.20;;;12.20;99.90;;;;;;486687;244;28761;-74
2021/03/29 09:28:22;;;;;;;8.23;2.70;;;12.30;99.90;;;;;;487107;244;28390;-74
2021/03/29 09:30:20;;;;;;;5.30;1.83;;;12.30;99.90;;;;;;487153;243;28295;-74
2021/03/29 09:32:21;;;;;;;7.03;2.13;;;12.40;99.90;;;;;;487361;244;28801;-74
2021/03/29 09:34:22;;;;;;;6.07;2.20;;;12.50;99.90;;;;;;487349;244;29354;-74
2021/03/29 09:36:24;;;;;;;6.57;2.50;;;12.40;99.90;;;;;;487331;244;28784;-74
2021/03/29 09:38:25;;;;;;;7.70;2.27;;;12.50;99.90;;;;;;487331;244;28329;-74
2021/03/29 09:40:26;;;;;;;2.97;2.10;;;12.50;99.90;;;;;;487356;244;28385;-74
2021/03/29 09:42:27;;;;;;;2.83;1.73;;;12.50;99.90;;;;;;487332;244;28470;-74
2021/03/29 09:44:30;;;;;;;7.20;2.30;;;12.50;99.90;;;;;;487337;244;28093;-74
2021/03/29 09:46:30;;;;;;;2.80;1.80;;;12.50;99.90;;;;;;487024;244;28874;-74
2021/03/29 09:48:31;;;;;;;3.00;1.87;;;12.60;99.90;;;;;;487120;244;28934;-74
2021/03/29 09:50:32;;;;;;;5.47;2.00;;;12.70;99.90;;;;;;486896;244;28104;-73
2021/03/29 09:52:34;;;;;;;7.10;2.60;;;12.90;99.90;;;;;;487174;244;28458;-74
2021/03/29 09:54:35;;;;;;;5.67;2.20;;;13.00;99.90;;;;;;487283;244;28449;-74
2021/03/29 09:56:38;;;;;;;5.20;2.47;;;12.90;99.20;;;;;;487133;244;29200;-74
2021/03/29 09:58:38;;;;;;;6.27;2.23;;;12.90;99.90;;;;;;486944;244;29126;-74
2021/03/29 10:00:39;;;;;;;3.63;2.40;;;13.00;99.80;;;;;;487339;244;29243;-74
2021/03/29 10:02:40;;;;;;;4.30;2.27;;;13.00;99.90;;;;;;487451;244;28995;-74
2021/03/29 10:04:41;;;;;;;6.47;2.10;;;13.20;99.90;;;;;;487414;244;28207;-74
2021/03/29 10:06:42;;;;;;;7.10;2.40;;;13.30;98.80;;;;;;487390;244;28074;-74
2021/03/29 10:08:44;;;;;;;7.63;2.23;;;13.30;98.50;;;;;;487409;244;28313;-74
2021/03/29 10:10:45;;;;;;;3.60;1.90;;;13.40;99.90;;;;;;487448;244;28165;-74
2021/03/29 10:12:46;;;;;;;5.07;2.30;;;13.50;99.30;;;;;;487337;244;28301;-75
2021/03/29 10:14:47;;;;;;;3.97;1.87;;;13.80;99.40;;;;;;487348;244;28350;-72
2021/03/29 10:16:49;;;;;;;7.97;2.03;;;13.80;98.90;;;;;;487351;244;28348;-74
2021/03/29 10:18:50;;;;;;;5.53;2.27;;;14.00;99.40;;;;;;487381;244;28369;-74
2021/03/29 10:20:52;;;;;;;3.20;1.90;;;;;;;;;;487367;244;29412;-74
2021/03/29 10:22:55;;;;;;;4.03;2.10;;;;;;;;;;487332;243;26630;-74
2021/03/29 10:24:56;;;;;;;3.50;2.00;;;14.00;96.40;;;;;;487343;243;28174;-74
2021/03/29 10:26:58;;;;;;;3.70;1.93;;;;;;;;;;487378;244;28292;-74
2021/03/29 10:29:00;;;;;;;3.57;2.00;;;14.10;98.00;;;;;;487322;243;26528;-74
2021/03/29 10:31:02;;;;;;;4.17;2.00;;;;;;;;;;487322;244;28515;-74
2021/03/29 10:33:04;;;;;;;3.90;1.87;;;14.20;97.50;;;;;;487356;243;26553;-74
2021/03/29 10:35:05;;;;;;;6.80;2.40;;;14.20;96.20;;;;;;487582;244;28291;-74
2021/03/29 10:37:06;;;;;;;6.03;2.47;;;14.10;97.70;;;;;;487322;244;28399;-73
2021/03/29 10:39:08;;;;;;;2.40;1.70;;;14.10;97.00;;;;;;487354;244;28327;-74